sensor_id;sensor_type;location;lat;lon;timestamp;pressure;altitude;pressure_sealevel;temperature;humidity
9415;BME280;4746;35.664;139.738;2024-03-06T00:01:21;99420.28;;;9.25;62.87
9415;BME280;4746;35.664;139.738;2024-03-06T00:03:49;99411.75;;;9.23;62.65
9415;BME280;4746;35.664;139.738;2024-03-06T00:06:16;99401.53;;;9.25;62.80
9415;BME280;4746;35.664;139.738;2024-03-06T00:08:44;99374.28;;;9.25;62.92
9415;BME280;4746;35.664;139.738;2024-03-06T00:11:11;99415.16;;;9.31;63.18
9415;BME280;4746;35.664;139.738;2024-03-06T00:13:39;99398.09;;;9.30;62.96
9415;BME280;4746;35.664;139.738;2024-03-06T00:16:06;99393.00;;;9.33;63.22
9415;BME280;4746;35.664;139.738;2024-03-06T00:18:34;99379.38;;;9.34;62.80
9415;BME280;4746;35.664;139.738;2024-03-06T00:21:01;99398.97;;;9.34;63.13
9415;BME280;4746;35.664;139.738;2024-03-06T00:23:29;99377.69;;;9.33;63.12
9415;BME280;4746;35.664;139.738;2024-03-06T00:25:57;99383.63;;;9.34;62.63
9415;BME280;4746;35.664;139.738;2024-03-06T00:28:31;99399.81;;;9.37;62.72
9415;BME280;4746;35.664;139.738;2024-03-06T00:30:58;99414.28;;;9.35;62.88
9415;BME280;4746;35.664;139.738;2024-03-06T00:33:29;99421.97;;;9.40;62.68
9415;BME280;4746;35.664;139.738;2024-03-06T00:35:56;99430.50;;;9.40;63.05
9415;BME280;4746;35.664;139.738;2024-03-06T00:38:26;99415.13;;;9.43;62.73
9415;BME280;4746;35.664;139.738;2024-03-06T00:40:56;99416.84;;;9.44;62.45
9415;BME280;4746;35.664;139.738;2024-03-06T00:43:25;99418.56;;;9.45;62.50
9415;BME280;4746;35.664;139.738;2024-03-06T00:45:52;99386.16;;;9.50;62.72
9415;BME280;4746;35.664;139.738;2024-03-06T00:48:21;99400.63;;;9.57;62.62
9415;BME280;4746;35.664;139.738;2024-03-06T00:50:49;99432.16;;;9.59;62.58
9415;BME280;4746;35.664;139.738;2024-03-06T00:53:16;99434.72;;;9.61;62.07
9415;BME280;4746;35.664;139.738;2024-03-06T00:55:44;99416.81;;;9.59;62.25
9415;BME280;4746;35.664;139.738;2024-03-06T00:58:11;99427.91;;;9.61;62.38
9415;BME280;4746;35.664;139.738;2024-03-06T01:00:41;99439.81;;;9.64;62.28
9415;BME280;4746;35.664;139.738;2024-03-06T01:03:08;99421.91;;;9.65;62.68
9415;BME280;4746;35.664;139.738;2024-03-06T01:05:36;99444.94;;;9.67;62.46
9415;BME280;4746;35.664;139.738;2024-03-06T01:08:03;99456.00;;;9.67;62.52
9415;BME280;4746;35.664;139.738;2024-03-06T01:10:34;99444.94;;;9.69;62.43
9415;BME280;4746;35.664;139.738;2024-03-06T01:13:02;99439.78;;;9.71;62.21
9415;BME280;4746;35.664;139.738;2024-03-06T01:15:30;99436.38;;;9.76;62.56
9415;BME280;4746;35.664;139.738;2024-03-06T01:17:57;99434.66;;;9.77;62.51
9415;BME280;4746;35.664;139.738;2024-03-06T01:20:25;99426.97;;;9.83;62.55
9415;BME280;4746;35.664;139.738;2024-03-06T01:22:53;99427.00;;;9.86;62.52
9415;BME280;4746;35.664;139.738;2024-03-06T01:25:21;99421.84;;;9.89;62.05
9415;BME280;4746;35.664;139.738;2024-03-06T01:27:49;99399.66;;;9.94;62.13
9415;BME280;4746;35.664;139.738;2024-03-06T01:30:17;99410.75;;;9.96;62.12
9415;BME280;4746;35.664;139.738;2024-03-06T01:32:44;99420.16;;;10.01;62.03
9415;BME280;4746;35.664;139.738;2024-03-06T01:35:13;99412.47;;;10.03;61.67
9415;BME280;4746;35.664;139.738;2024-03-06T01:37:40;99439.72;;;10.07;61.60
9415;BME280;4746;35.664;139.738;2024-03-06T01:40:09;99414.16;;;10.04;60.96
9415;BME280;4746;35.664;139.738;2024-03-06T01:42:37;99427.81;;;10.04;61.49
9415;BME280;4746;35.664;139.738;2024-03-06T01:45:05;99420.09;;;10.12;61.38
9415;BME280;4746;35.664;139.738;2024-03-06T01:47:34;99424.34;;;10.14;61.11
9415;BME280;4746;35.664;139.738;2024-03-06T01:50:02;99417.53;;;10.13;61.15
9415;BME280;4746;35.664;139.738;2024-03-06T01:52:31;99416.69;;;10.16;61.32
9415;BME280;4746;35.664;139.738;2024-03-06T01:54:58;99380.81;;;10.20;60.83
9415;BME280;4746;35.664;139.738;2024-03-06T01:57:26;99372.28;;;10.24;60.99
9415;BME280;4746;35.664;139.738;2024-03-06T01:59:54;99407.22;;;10.30;60.97
9415;BME280;4746;35.664;139.738;2024-03-06T02:02:22;99409.75;;;10.36;60.74
9415;BME280;4746;35.664;139.738;2024-03-06T02:04:50;99396.94;;;10.37;59.98
9415;BME280;4746;35.664;139.738;2024-03-06T02:07:20;99386.63;;;10.47;60.33
9415;BME280;4746;35.664;139.738;2024-03-06T02:09:48;99396.00;;;10.48;60.12
9415;BME280;4746;35.664;139.738;2024-03-06T02:12:16;99377.19;;;10.52;59.94
9415;BME280;4746;35.664;139.738;2024-03-06T02:14:44;99379.75;;;10.55;59.51
9415;BME280;4746;35.664;139.738;2024-03-06T02:17:12;99378.91;;;10.56;59.41
9415;BME280;4746;35.664;139.738;2024-03-06T02:19:43;99337.84;;;10.65;59.44
9415;BME280;4746;35.664;139.738;2024-03-06T02:22:11;99342.00;;;10.83;58.88
9415;BME280;4746;35.664;139.738;2024-03-06T02:24:45;99349.47;;;11.05;59.05
9415;BME280;4746;35.664;139.738;2024-03-06T02:27:13;99353.66;;;11.16;58.25
9415;BME280;4746;35.664;139.738;2024-03-06T02:29:40;99353.66;;;11.16;58.07
9415;BME280;4746;35.664;139.738;2024-03-06T02:32:08;99351.94;;;11.15;58.12
9415;BME280;4746;35.664;139.738;2024-03-06T02:34:35;99331.47;;;11.12;57.98
9415;BME280;4746;35.664;139.738;2024-03-06T02:37:03;99357.91;;;11.17;58.19
9415;BME280;4746;35.664;139.738;2024-03-06T02:39:30;99363.09;;;11.08;58.10
9415;BME280;4746;35.664;139.738;2024-03-06T02:41:58;99347.75;;;11.07;57.70
9415;BME280;4746;35.664;139.738;2024-03-06T02:44:25;99358.91;;;11.00;57.73
9415;BME280;4746;35.664;139.738;2024-03-06T02:46:53;99329.91;;;10.97;57.96
9415;BME280;4746;35.664;139.738;2024-03-06T02:49:20;99343.59;;;10.93;58.20
9415;BME280;4746;35.664;139.738;2024-03-06T02:51:48;99356.47;;;10.87;58.19
9415;BME280;4746;35.664;139.738;2024-03-06T02:54:15;99353.06;;;10.88;58.39
9415;BME280;4746;35.664;139.738;2024-03-06T02:57:54;99334.94;;;11.07;58.16
9415;BME280;4746;35.664;139.738;2024-03-06T03:00:22;99347.75;;;11.07;58.42
9415;BME280;4746;35.664;139.738;2024-03-06T03:02:50;99339.88;;;11.25;58.14
9415;BME280;4746;35.664;139.738;2024-03-06T03:05:17;99340.56;;;11.42;57.83
9415;BME280;4746;35.664;139.738;2024-03-06T03:07:45;99326.72;;;11.61;57.38
9415;BME280;4746;35.664;139.738;2024-03-06T03:10:12;99330.91;;;11.66;57.29
9415;BME280;4746;35.664;139.738;2024-03-06T03:12:40;99337.81;;;11.61;56.95
9415;BME280;4746;35.664;139.738;2024-03-06T03:15:09;99314.75;;;11.60;56.96
9415;BME280;4746;35.664;139.738;2024-03-06T03:17:37;99311.25;;;11.67;57.06
9415;BME280;4746;35.664;139.738;2024-03-06T03:20:05;99322.22;;;11.77;57.04
9415;BME280;4746;35.664;139.738;2024-03-06T03:22:43;99299.84;;;11.88;56.70
9415;BME280;4746;35.664;139.738;2024-03-06T03:25:11;99298.94;;;11.94;56.51
9415;BME280;4746;35.664;139.738;2024-03-06T03:27:40;99292.81;;;12.02;56.34
9415;BME280;4746;35.664;139.738;2024-03-06T03:30:10;99286.75;;;12.09;56.25
9415;BME280;4746;35.664;139.738;2024-03-06T03:32:38;99291.66;;;12.21;56.09
9415;BME280;4746;35.664;139.738;2024-03-06T03:35:07;99277.03;;;12.28;56.38
9415;BME280;4746;35.664;139.738;2024-03-06T03:37:35;99264.94;;;12.34;55.56
9415;BME280;4746;35.664;139.738;2024-03-06T03:40:03;99261.34;;;12.46;55.34
9415;BME280;4746;35.664;139.738;2024-03-06T03:42:30;99246.53;;;12.59;54.89
9415;BME280;4746;35.664;139.738;2024-03-06T03:44:59;99236.16;;;12.67;54.41
9415;BME280;4746;35.664;139.738;2024-03-06T03:47:27;99241.16;;;12.74;53.89
9415;BME280;4746;35.664;139.738;2024-03-06T03:49:54;99235.03;;;12.81;53.86
9415;BME280;4746;35.664;139.738;2024-03-06T03:52:22;99245.22;;;12.89;53.54
9415;BME280;4746;35.664;139.738;2024-03-06T03:54:49;99239.19;;;12.91;53.13
9415;BME280;4746;35.664;139.738;2024-03-06T03:57:17;99245.03;;;12.98;53.04
9415;BME280;4746;35.664;139.738;2024-03-06T03:59:44;99242.31;;;13.07;52.71
9415;BME280;4746;35.664;139.738;2024-03-06T04:02:12;99236.94;;;13.18;52.06
9415;BME280;4746;35.664;139.738;2024-03-06T04:04:41;99229.75;;;13.35;52.08
9415;BME280;4746;35.664;139.738;2024-03-06T04:07:08;99235.41;;;13.52;51.97
9415;BME280;4746;35.664;139.738;2024-03-06T04:09:36;99230.00;;;13.64;51.62
9415;BME280;4746;35.664;139.738;2024-03-06T04:12:04;99223.91;;;13.68;51.13
9415;BME280;4746;35.664;139.738;2024-03-06T04:14:31;99231.41;;;13.79;50.71
9415;BME280;4746;35.664;139.738;2024-03-06T04:16:59;99230.34;;;13.87;50.75
9415;BME280;4746;35.664;139.738;2024-03-06T04:19:27;99190.72;;;13.94;50.13
9415;BME280;4746;35.664;139.738;2024-03-06T04:21:54;99231.91;;;13.94;49.40
9415;BME280;4746;35.664;139.738;2024-03-06T04:24:22;99221.63;;;13.94;49.88
9415;BME280;4746;35.664;139.738;2024-03-06T04:26:49;99237.13;;;13.91;49.56
9415;BME280;4746;35.664;139.738;2024-03-06T04:29:17;99235.28;;;13.97;49.68
9415;BME280;4746;35.664;139.738;2024-03-06T04:31:44;99227.03;;;14.21;49.46
9415;BME280;4746;35.664;139.738;2024-03-06T04:34:12;99222.22;;;14.43;49.03
9415;BME280;4746;35.664;139.738;2024-03-06T04:36:39;99214.50;;;14.74;48.63
9415;BME280;4746;35.664;139.738;2024-03-06T04:39:07;99197.25;;;15.08;47.77
9415;BME280;4746;35.664;139.738;2024-03-06T04:41:35;99218.88;;;15.36;47.54
9415;BME280;4746;35.664;139.738;2024-03-06T04:44:04;99213.56;;;15.71;47.19
9415;BME280;4746;35.664;139.738;2024-03-06T04:46:32;99227.16;;;16.04;45.91
9415;BME280;4746;35.664;139.738;2024-03-06T04:48:59;99232.19;;;16.36;45.26
9415;BME280;4746;35.664;139.738;2024-03-06T04:51:27;99224.28;;;16.41;45.47
9415;BME280;4746;35.664;139.738;2024-03-06T04:53:54;99236.78;;;16.28;45.38
9415;BME280;4746;35.664;139.738;2024-03-06T04:56:22;99235.72;;;16.06;44.78
9415;BME280;4746;35.664;139.738;2024-03-06T04:58:49;99232.53;;;15.70;45.23
9415;BME280;4746;35.664;139.738;2024-03-06T05:01:18;99243.75;;;15.38;45.81
9415;BME280;4746;35.664;139.738;2024-03-06T05:03:46;99268.53;;;15.12;45.84
9415;BME280;4746;35.664;139.738;2024-03-06T05:06:13;99263.88;;;14.94;45.95
9415;BME280;4746;35.664;139.738;2024-03-06T05:08:41;99241.84;;;14.81;46.28
9415;BME280;4746;35.664;139.738;2024-03-06T05:11:08;99236.75;;;14.78;46.81
9415;BME280;4746;35.664;139.738;2024-03-06T05:13:36;99195.91;;;14.95;46.59
9415;BME280;4746;35.664;139.738;2024-03-06T05:16:03;99182.81;;;15.33;46.99
9415;BME280;4746;35.664;139.738;2024-03-06T05:18:31;99193.22;;;16.15;45.42
9415;BME280;4746;35.664;139.738;2024-03-06T05:20:59;99192.16;;;16.48;44.50
9415;BME280;4746;35.664;139.738;2024-03-06T05:23:27;99201.75;;;17.19;43.81
9415;BME280;4746;35.664;139.738;2024-03-06T05:25:54;99226.47;;;17.51;42.69
9415;BME280;4746;35.664;139.738;2024-03-06T05:28:22;99223.69;;;18.02;42.01
9415;BME280;4746;35.664;139.738;2024-03-06T05:30:49;99229.66;;;18.87;40.60
9415;BME280;4746;35.664;139.738;2024-03-06T05:33:17;99217.25;;;19.72;39.71
9415;BME280;4746;35.664;139.738;2024-03-06T05:35:44;99213.78;;;20.80;38.58
9415;BME280;4746;35.664;139.738;2024-03-06T05:38:12;99215.16;;;21.68;37.69
9415;BME280;4746;35.664;139.738;2024-03-06T05:40:39;99211.94;;;22.71;36.20
9415;BME280;4746;35.664;139.738;2024-03-06T05:43:10;99206.72;;;23.01;35.10
9415;BME280;4746;35.664;139.738;2024-03-06T05:45:38;99208.91;;;22.93;34.70
9415;BME280;4746;35.664;139.738;2024-03-06T05:48:06;99199.94;;;22.83;33.98
9415;BME280;4746;35.664;139.738;2024-03-06T05:50:34;99191.78;;;23.03;33.71
9415;BME280;4746;35.664;139.738;2024-03-06T05:53:02;99196.03;;;23.61;33.28
9415;BME280;4746;35.664;139.738;2024-03-06T05:55:29;99192.53;;;24.68;32.28
9415;BME280;4746;35.664;139.738;2024-03-06T05:57:57;99182.13;;;25.55;29.77
9415;BME280;4746;35.664;139.738;2024-03-06T06:00:26;99196.38;;;24.89;29.45
9415;BME280;4746;35.664;139.738;2024-03-06T06:02:53;99210.91;;;23.74;30.61
9415;BME280;4746;35.664;139.738;2024-03-06T06:05:21;99215.81;;;23.09;30.93
9415;BME280;4746;35.664;139.738;2024-03-06T06:07:50;99202.25;;;23.74;30.45
9415;BME280;4746;35.664;139.738;2024-03-06T06:10:18;99194.91;;;24.98;29.96
9415;BME280;4746;35.664;139.738;2024-03-06T06:12:48;99192.56;;;26.28;27.95
9415;BME280;4746;35.664;139.738;2024-03-06T06:15:16;99211.91;;;26.63;27.88
9415;BME280;4746;35.664;139.738;2024-03-06T06:17:44;99219.91;;;25.65;27.54
9415;BME280;4746;35.664;139.738;2024-03-06T06:20:13;99205.44;;;24.05;28.72
9415;BME280;4746;35.664;139.738;2024-03-06T06:22:45;99209.47;;;22.84;30.08
9415;BME280;4746;35.664;139.738;2024-03-06T06:25:12;99229.84;;;22.02;31.19
9415;BME280;4746;35.664;139.738;2024-03-06T06:27:40;99257.31;;;21.27;31.99
9415;BME280;4746;35.664;139.738;2024-03-06T06:30:08;99257.94;;;20.46;32.75
9415;BME280;4746;35.664;139.738;2024-03-06T06:32:42;99274.72;;;19.66;33.73
9415;BME280;4746;35.664;139.738;2024-03-06T06:35:11;99269.03;;;18.98;34.39
9415;BME280;4746;35.664;139.738;2024-03-06T06:37:40;99262.31;;;18.52;35.48
9415;BME280;4746;35.664;139.738;2024-03-06T06:40:09;99261.16;;;18.14;36.28
9415;BME280;4746;35.664;139.738;2024-03-06T06:42:44;99268.38;;;17.85;36.74
9415;BME280;4746;35.664;139.738;2024-03-06T06:45:20;99281.63;;;17.53;37.26
9415;BME280;4746;35.664;139.738;2024-03-06T06:47:52;99298.53;;;17.15;37.61
9415;BME280;4746;35.664;139.738;2024-03-06T06:50:20;99292.00;;;16.79;38.28
9415;BME280;4746;35.664;139.738;2024-03-06T06:52:53;99305.00;;;16.50;38.98
9415;BME280;4746;35.664;139.738;2024-03-06T06:55:20;99302.09;;;16.33;39.36
9415;BME280;4746;35.664;139.738;2024-03-06T06:57:50;99297.31;;;16.20;39.50
9415;BME280;4746;35.664;139.738;2024-03-06T07:00:18;99296.75;;;16.10;39.80
9415;BME280;4746;35.664;139.738;2024-03-06T07:02:49;99295.22;;;16.03;40.49
9415;BME280;4746;35.664;139.738;2024-03-06T07:05:17;99307.78;;;15.87;40.35
9415;BME280;4746;35.664;139.738;2024-03-06T07:07:45;99319.44;;;15.71;40.64
9415;BME280;4746;35.664;139.738;2024-03-06T07:10:13;99341.38;;;15.55;41.11
9415;BME280;4746;35.664;139.738;2024-03-06T07:12:41;99336.72;;;15.37;41.19
9415;BME280;4746;35.664;139.738;2024-03-06T07:15:09;99337.06;;;15.25;41.63
9415;BME280;4746;35.664;139.738;2024-03-06T07:17:36;99340.69;;;15.15;41.83
9415;BME280;4746;35.664;139.738;2024-03-06T07:20:04;99337.53;;;15.04;41.94
9415;BME280;4746;35.664;139.738;2024-03-06T07:22:33;99353.16;;;14.98;42.14
9415;BME280;4746;35.664;139.738;2024-03-06T07:25:01;99336.09;;;14.94;42.48
9415;BME280;4746;35.664;139.738;2024-03-06T07:27:29;99349.91;;;14.90;42.42
9415;BME280;4746;35.664;139.738;2024-03-06T07:29:57;99359.63;;;14.81;42.73
9415;BME280;4746;35.664;139.738;2024-03-06T07:32:24;99344.25;;;14.76;42.86
9415;BME280;4746;35.664;139.738;2024-03-06T07:34:52;99338.38;;;14.71;42.75
9415;BME280;4746;35.664;139.738;2024-03-06T07:37:19;99350.56;;;14.63;42.65
9415;BME280;4746;35.664;139.738;2024-03-06T07:39:48;99344.66;;;14.60;43.16
9415;BME280;4746;35.664;139.738;2024-03-06T07:42:15;99342.16;;;14.57;43.45
9415;BME280;4746;35.664;139.738;2024-03-06T07:44:44;99362.91;;;14.50;43.00
9415;BME280;4746;35.664;139.738;2024-03-06T07:47:12;99357.91;;;14.44;43.50
9415;BME280;4746;35.664;139.738;2024-03-06T07:49:41;99370.09;;;14.37;43.51
9415;BME280;4746;35.664;139.738;2024-03-06T07:52:11;99373.56;;;14.35;43.91
9415;BME280;4746;35.664;139.738;2024-03-06T07:54:38;99382.25;;;14.31;43.36
9415;BME280;4746;35.664;139.738;2024-03-06T07:57:06;99395.16;;;14.31;43.88
9415;BME280;4746;35.664;139.738;2024-03-06T07:59:34;99395.94;;;14.33;44.18
9415;BME280;4746;35.664;139.738;2024-03-06T08:02:01;99395.13;;;14.32;43.95
9415;BME280;4746;35.664;139.738;2024-03-06T08:04:29;99400.34;;;14.28;43.90
9415;BME280;4746;35.664;139.738;2024-03-06T08:06:56;99402.09;;;14.27;43.93
9415;BME280;4746;35.664;139.738;2024-03-06T08:09:26;99408.13;;;14.26;44.10
9415;BME280;4746;35.664;139.738;2024-03-06T08:11:55;99419.34;;;14.24;44.16
9415;BME280;4746;35.664;139.738;2024-03-06T08:14:23;99431.34;;;14.25;44.19
9415;BME280;4746;35.664;139.738;2024-03-06T08:16:50;99424.53;;;14.22;44.50
9415;BME280;4746;35.664;139.738;2024-03-06T08:19:18;99422.00;;;14.19;44.74
9415;BME280;4746;35.664;139.738;2024-03-06T08:21:45;99415.25;;;14.14;44.71
9415;BME280;4746;35.664;139.738;2024-03-06T08:24:13;99430.81;;;14.08;44.90
9415;BME280;4746;35.664;139.738;2024-03-06T08:26:42;99434.38;;;14.01;44.92
9415;BME280;4746;35.664;139.738;2024-03-06T08:29:09;99433.53;;;13.99;44.86
9415;BME280;4746;35.664;139.738;2024-03-06T08:31:37;99432.75;;;13.95;45.41
9415;BME280;4746;35.664;139.738;2024-03-06T08:34:04;99438.78;;;13.94;45.22
9415;BME280;4746;35.664;139.738;2024-03-06T08:36:32;99467.13;;;13.93;45.31
9415;BME280;4746;35.664;139.738;2024-03-06T08:38:59;99468.84;;;13.94;45.72
9415;BME280;4746;35.664;139.738;2024-03-06T08:41:27;99473.09;;;13.96;45.76
9415;BME280;4746;35.664;139.738;2024-03-06T08:43:55;99470.44;;;14.01;45.72
9415;BME280;4746;35.664;139.738;2024-03-06T08:46:23;99466.91;;;14.05;45.64
9415;BME280;4746;35.664;139.738;2024-03-06T08:48:51;99477.22;;;14.05;45.65
9415;BME280;4746;35.664;139.738;2024-03-06T08:51:18;99478.91;;;14.06;45.65
9415;BME280;4746;35.664;139.738;2024-03-06T08:53:48;99493.47;;;14.10;45.79
9415;BME280;4746;35.664;139.738;2024-03-06T08:56:16;99490.06;;;14.08;46.12
9415;BME280;4746;35.664;139.738;2024-03-06T08:58:44;99494.38;;;14.06;45.83
9415;BME280;4746;35.664;139.738;2024-03-06T09:01:12;99487.47;;;14.08;45.81
9415;BME280;4746;35.664;139.738;2024-03-06T09:03:40;99487.47;;;14.08;45.70
9415;BME280;4746;35.664;139.738;2024-03-06T09:06:08;99500.38;;;14.05;45.81
9415;BME280;4746;35.664;139.738;2024-03-06T09:08:37;99496.97;;;14.04;45.94
9415;BME280;4746;35.664;139.738;2024-03-06T09:11:05;99499.56;;;14.03;46.00
9415;BME280;4746;35.664;139.738;2024-03-06T09:13:32;99513.34;;;14.00;45.87
9415;BME280;4746;35.664;139.738;2024-03-06T09:16:00;99510.72;;;14.03;46.23
9415;BME280;4746;35.664;139.738;2024-03-06T09:18:28;99515.00;;;14.04;46.13
9415;BME280;4746;35.664;139.738;2024-03-06T09:20:56;99515.84;;;14.05;46.07
9415;BME280;4746;35.664;139.738;2024-03-06T09:23:23;99513.22;;;14.08;46.12
9415;BME280;4746;35.664;139.738;2024-03-06T09:25:53;99523.50;;;14.11;46.50
9415;BME280;4746;35.664;139.738;2024-03-06T09:28:21;99509.66;;;14.15;46.25
9415;BME280;4746;35.664;139.738;2024-03-06T09:30:49;99521.69;;;14.16;46.14
9415;BME280;4746;35.664;139.738;2024-03-06T09:33:17;99527.72;;;14.15;45.84
9415;BME280;4746;35.664;139.738;2024-03-06T09:35:45;99533.75;;;14.14;46.13
9415;BME280;4746;35.664;139.738;2024-03-06T09:38:13;99540.63;;;14.13;45.96
9415;BME280;4746;35.664;139.738;2024-03-06T09:40:41;99557.00;;;14.11;46.34
9415;BME280;4746;35.664;139.738;2024-03-06T09:43:09;99561.28;;;14.12;46.48
9415;BME280;4746;35.664;139.738;2024-03-06T09:45:38;99562.09;;;14.12;45.83
9415;BME280;4746;35.664;139.738;2024-03-06T09:48:11;99566.34;;;14.15;46.24
9415;BME280;4746;35.664;139.738;2024-03-06T09:50:43;99577.50;;;14.17;46.11
9415;BME280;4746;35.664;139.738;2024-03-06T09:53:16;99579.16;;;14.19;45.91
9415;BME280;4746;35.664;139.738;2024-03-06T09:55:48;99573.16;;;14.19;45.92
9415;BME280;4746;35.664;139.738;2024-03-06T09:58:17;99574.91;;;14.17;46.09
9415;BME280;4746;35.664;139.738;2024-03-06T10:00:46;99583.50;;;14.16;46.16
9415;BME280;4746;35.664;139.738;2024-03-06T10:03:15;99595.59;;;14.14;45.82
9415;BME280;4746;35.664;139.738;2024-03-06T10:05:42;99594.72;;;14.13;45.93
9415;BME280;4746;35.664;139.738;2024-03-06T10:08:10;99614.50;;;14.13;45.80
9415;BME280;4746;35.664;139.738;2024-03-06T10:10:38;99619.66;;;14.13;45.93
9415;BME280;4746;35.664;139.738;2024-03-06T10:13:05;99607.63;;;14.09;45.88
9415;BME280;4746;35.664;139.738;2024-03-06T10:15:34;99564.06;;;13.98;45.91
9415;BME280;4746;35.664;139.738;2024-03-06T10:18:16;99559.78;;;13.97;46.08
9415;BME280;4746;35.664;139.738;2024-03-06T10:20:47;99570.16;;;13.93;46.19
9415;BME280;4746;35.664;139.738;2024-03-06T10:23:16;99570.97;;;13.95;46.13
9415;BME280;4746;35.664;139.738;2024-03-06T10:25:50;99569.16;;;14.00;45.90
9415;BME280;4746;35.664;139.738;2024-03-06T10:28:21;99580.34;;;13.99;46.15
9415;BME280;4746;35.664;139.738;2024-03-06T10:31:03;99589.81;;;13.98;46.15
9415;BME280;4746;35.664;139.738;2024-03-06T10:33:37;99599.31;;;13.95;46.01
9415;BME280;4746;35.664;139.738;2024-03-06T10:36:09;99601.94;;;13.90;45.73
9415;BME280;4746;35.664;139.738;2024-03-06T10:38:43;99617.44;;;13.89;46.08
9415;BME280;4746;35.664;139.738;2024-03-06T10:41:16;99616.63;;;13.86;45.92
9415;BME280;4746;35.664;139.738;2024-03-06T10:43:50;99607.19;;;13.85;45.97
9415;BME280;4746;35.664;139.738;2024-03-06T10:46:22;99614.97;;;13.83;46.41
9415;BME280;4746;35.664;139.738;2024-03-06T10:48:52;99615.75;;;13.87;45.68
9415;BME280;4746;35.664;139.738;2024-03-06T10:51:21;99613.19;;;13.87;45.55
9415;BME280;4746;35.664;139.738;2024-03-06T10:53:51;99609.81;;;13.83;45.45
9415;BME280;4746;35.664;139.738;2024-03-06T10:56:21;99618.44;;;13.81;45.20
9415;BME280;4746;35.664;139.738;2024-03-06T10:58:53;99614.16;;;13.80;45.00
9415;BME280;4746;35.664;139.738;2024-03-06T11:01:25;99621.00;;;13.79;44.82
9415;BME280;4746;35.664;139.738;2024-03-06T11:04:01;99627.91;;;13.77;44.66
9415;BME280;4746;35.664;139.738;2024-03-06T11:06:30;99633.94;;;13.76;44.48
9415;BME280;4746;35.664;139.738;2024-03-06T11:09:00;99637.28;;;13.81;44.44
9415;BME280;4746;35.664;139.738;2024-03-06T11:11:30;99641.59;;;13.81;43.82
9415;BME280;4746;35.664;139.738;2024-03-06T11:14:05;99657.88;;;13.81;43.93
9415;BME280;4746;35.664;139.738;2024-03-06T11:17:02;99639.84;;;13.83;42.96
9415;BME280;4746;35.664;139.738;2024-03-06T11:20:07;99649.41;;;13.73;41.58
9415;BME280;4746;35.664;139.738;2024-03-06T11:28:27;99655.84;;;13.47;39.81
9415;BME280;4746;35.664;139.738;2024-03-06T11:31:05;99665.34;;;13.40;39.13
9415;BME280;4746;35.664;139.738;2024-03-06T11:33:45;99665.41;;;13.37;38.95
9415;BME280;4746;35.664;139.738;2024-03-06T11:36:28;99665.47;;;13.31;38.97
9415;BME280;4746;35.664;139.738;2024-03-06T11:39:07;99658.66;;;13.27;39.26
9415;BME280;4746;35.664;139.738;2024-03-06T11:44:18;99669.84;;;13.23;38.98
9415;BME280;4746;35.664;139.738;2024-03-06T11:47:05;99665.56;;;13.25;38.79
9415;BME280;4746;35.664;139.738;2024-03-06T11:49:36;99663.88;;;13.20;38.57
9415;BME280;4746;35.664;139.738;2024-03-06T11:52:10;99680.25;;;13.16;38.80
9415;BME280;4746;35.664;139.738;2024-03-06T11:54:38;99706.00;;;13.12;38.44
9415;BME280;4746;35.664;139.738;2024-03-06T11:57:07;99688.91;;;13.06;38.42
9415;BME280;4746;35.664;139.738;2024-03-06T11:59:37;99714.66;;;13.05;38.50
9415;BME280;4746;35.664;139.738;2024-03-06T12:02:07;99692.41;;;13.01;38.28
9415;BME280;4746;35.664;139.738;2024-03-06T12:04:37;99704.47;;;12.97;38.36
9415;BME280;4746;35.664;139.738;2024-03-06T12:07:06;99716.47;;;12.97;38.32
9415;BME280;4746;35.664;139.738;2024-03-06T12:09:39;99724.19;;;12.94;38.25
9415;BME280;4746;35.664;139.738;2024-03-06T12:12:08;99713.06;;;12.92;38.30
9415;BME280;4746;35.664;139.738;2024-03-06T12:14:38;99707.13;;;12.90;38.05
9415;BME280;4746;35.664;139.738;2024-03-06T12:17:10;99704.56;;;12.88;37.86
9415;BME280;4746;35.664;139.738;2024-03-06T12:19:42;99712.28;;;12.87;38.04
9415;BME280;4746;35.664;139.738;2024-03-06T12:22:15;99712.28;;;12.84;37.98
9415;BME280;4746;35.664;139.738;2024-03-06T12:24:46;99720.88;;;12.80;38.20
9415;BME280;4746;35.664;139.738;2024-03-06T12:27:25;99722.63;;;12.78;38.24
9415;BME280;4746;35.664;139.738;2024-03-06T12:29:56;99719.19;;;12.77;38.12
9415;BME280;4746;35.664;139.738;2024-03-06T12:32:25;99714.13;;;12.73;38.07
9415;BME280;4746;35.664;139.738;2024-03-06T12:35:00;99717.53;;;12.73;37.90
9415;BME280;4746;35.664;139.738;2024-03-06T12:37:33;99725.25;;;12.73;38.01
9415;BME280;4746;35.664;139.738;2024-03-06T12:40:03;99724.41;;;12.73;38.05
9415;BME280;4746;35.664;139.738;2024-03-06T12:42:32;99721.00;;;12.69;38.36
9415;BME280;4746;35.664;139.738;2024-03-06T12:45:03;99713.31;;;12.65;37.97
9415;BME280;4746;35.664;139.738;2024-03-06T12:47:32;99703.94;;;12.61;37.45
9415;BME280;4746;35.664;139.738;2024-03-06T12:50:00;99703.94;;;12.59;37.70
9415;BME280;4746;35.664;139.738;2024-03-06T12:52:29;99700.53;;;12.59;37.16
9415;BME280;4746;35.664;139.738;2024-03-06T12:54:58;99703.97;;;12.58;37.60
9415;BME280;4746;35.664;139.738;2024-03-06T12:57:27;99692.81;;;12.59;38.06
9415;BME280;4746;35.664;139.738;2024-03-06T12:59:57;99703.06;;;12.60;38.14
9415;BME280;4746;35.664;139.738;2024-03-06T13:02:27;99694.50;;;12.61;37.95
9415;BME280;4746;35.664;139.738;2024-03-06T13:04:56;99709.91;;;12.64;37.92
9415;BME280;4746;35.664;139.738;2024-03-06T13:07:24;99705.63;;;12.63;37.61
9415;BME280;4746;35.664;139.738;2024-03-06T13:09:54;99715.06;;;12.61;37.86
9415;BME280;4746;35.664;139.738;2024-03-06T13:12:24;99722.81;;;12.57;37.60
9415;BME280;4746;35.664;139.738;2024-03-06T13:14:52;99712.56;;;12.54;37.49
9415;BME280;4746;35.664;139.738;2024-03-06T13:17:21;99704.03;;;12.52;37.34
9415;BME280;4746;35.664;139.738;2024-03-06T13:19:51;99705.78;;;12.50;37.42
9415;BME280;4746;35.664;139.738;2024-03-06T13:22:19;99719.50;;;12.46;37.57